Terminal Aerodrome Forecast
Issued by NWS

Home | Current Version | Previous Version | Text Only | Print | Product List | Glossary Off
Versions: 1 2 3 4 5 6 7 8 9 10 11 12 13 14 15 16

000
FTUS43 KMPX 010532
TAFRNH
TAF
KRNH 010532Z 0106/0206 19009KT 6SM -SN OVC060
     FM011000 21006KT P6SM SCT020 BKN040
     FM011500 26008KT P6SM SCT250
      TEMPO 0118/0122 27010G17KT=

USA.gov is the U.S. government's official web portal to all federal, state and local government web resources and services.